Seabourn Pride — C6FR5 — position and weather

sailwx.info

Track history (hours):
 
Tides and Currents Weather Stations Pressure Air Temp Water Temp Dewpoint Dewpoint Depression Visibility Wind Speed Wind Dir Waves Ship Positions

Seabourn Pride

Operator: Cunard Seabourn

Last reported at 2019-Aug-23 19:32 UTC. Time now 2019-Aug-24 08:00 UTC.
Position N 62°58' E 003°11'.

Length 134 m; draft 5.7 m.

Type: Ship. MMSI: 311084000.

Date/timePositionNaut miles runAvg speedWind from/ knotsBaromVisibWave heightAir tempDewpointWater temp
2019-Aug-23 19:32N 62°58' E 003°11'114.2
2019-Aug-23 19:26N 62°58' E 003°14'614.2
2019-Aug-23 19:00N 62°55' E 003°26'714.3
2019-Aug-23 18:30N 62°52' E 003°41'713.9
2019-Aug-23 18:00N 62°50' E 003°55'713.6
2019-Aug-23 17:30N 62°49' E 004°10'713.8
2019-Aug-23 17:00N 62°47' E 004°24'713.8
2019-Aug-23 16:30N 62°44' E 004°38'713.8
2019-Aug-23 16:00N 62°41' E 004°51'713.9
2019-Aug-23 15:30N 62°38' E 005°05'713.8
2019-Aug-23 15:00N 62°36' E 005°19'713.2
2019-Aug-23 14:30N 62°33' E 005°32'713.8
2019-Aug-23 13:59N 62°29' E 005°45'714.0
2019-Aug-23 13:30N 62°27' E 005°59'510.4
2019-Aug-23 13:00N 62°28' E 006°10'0 1.0
2019-Aug-23 12:30N 62°28' E 006°09'0 0.0
2019-Aug-23 12:00N 62°28' E 006°09'0 0.0
2019-Aug-23 11:30N 62°28' E 006°09'0 0.0
2019-Aug-23 10:59N 62°28' E 006°09'0 0.0
2019-Aug-23 10:30N 62°28' E 006°09'0 0.0
2019-Aug-23 10:00N 62°28' E 006°09'0 0.0
2019-Aug-23 09:30N 62°28' E 006°09'0 0.0
2019-Aug-23 09:00N 62°28' E 006°09'0 0.0
2019-Aug-23 08:30N 62°28' E 006°09'0 0.0
2019-Aug-23 08:00N 62°28' E 006°09'0 0.0
2019-Aug-23 07:30N 62°28' E 006°09'0 0.0
2019-Aug-23 07:00N 62°28' E 006°09'0 0.0
2019-Aug-23 06:30N 62°28' E 006°09'0 0.0
2019-Aug-23 06:00N 62°28' E 006°09'0 0.0
2019-Aug-23 05:30N 62°28' E 006°09'0 0.0
2019-Aug-23 05:00N 62°28' E 006°09'1 1.8
2019-Aug-23 04:30N 62°28' E 006°11'5 9.5
2019-Aug-23 04:00N 62°27' E 006°00'3 6.9
2019-Aug-23 03:30N 62°27' E 005°53'3 6.2
2019-Aug-23 03:00N 62°29' E 005°47'3 6.1
2019-Aug-23 02:30N 62°31' E 005°42'3 5.8
2019-Aug-23 02:00N 62°32' E 005°37'3 5.0
2019-Aug-23 01:29N 62°34' E 005°33'2 5.0
2019-Aug-23 01:00N 62°35' E 005°28'3 5.7
2019-Aug-23 00:30N 62°35' E 005°22'3 6.3
2019-Aug-23 00:00N 62°36' E 005°15'1 2.9
2019-Aug-22 23:30N 62°35' E 005°18'3 6.4
2019-Aug-22 23:00N 62°35' E 005°25'3 6.3
2019-Aug-22 22:30N 62°35' E 005°32'3 6.7
2019-Aug-22 22:00N 62°32' E 005°37'3 6.6
2019-Aug-22 21:30N 62°30' E 005°43'510.5
2019-Aug-22 21:00N 62°28' E 005°53'510.6
2019-Aug-22 20:29N 62°25' E 006°03'511.0
2019-Aug-22 20:00N 62°23' E 006°14'611.6
2019-Aug-22 19:30N 62°25' E 006°26'711.5
2019-Aug-22 18:55N 62°27' E 006°39'611.1
2019-Aug-22 18:22N 62°26' E 006°53'410.8
2019-Aug-22 18:00N 62°23' E 006°55'611.5
2019-Aug-22 17:30N 62°17' E 007°01'611.4
2019-Aug-22 17:00N 62°12' E 007°02'510.7
2019-Aug-22 16:30N 62°07' E 006°56'3 3.1
2019-Aug-22 15:42N 62°05' E 006°53'0 0.0
2019-Aug-22 15:18N 62°05' E 006°53'0 0.0
2019-Aug-22 14:48N 62°05' E 006°53'0 0.0
2019-Aug-22 14:24N 62°05' E 006°53'0 0.0
2019-Aug-22 13:36N 62°05' E 006°53'0 0.0
2019-Aug-22 13:18N 62°05' E 006°53'0 0.0
2019-Aug-22 12:42N 62°05' E 006°53'0 0.0
2019-Aug-22 12:30N 62°05' E 006°53'0 0.0
2019-Aug-22 11:53N 62°05' E 006°53'1 1.6
2019-Aug-22 11:20N 62°06' E 006°54'3 9.5
2019-Aug-22 11:00N 62°06' E 007°01'4 8.6
2019-Aug-22 10:30N 62°07' E 007°09'1 2.4
2019-Aug-22 10:00N 62°06' E 007°11'0 0.0
2019-Aug-22 09:30N 62°06' E 007°11'0 0.0
2019-Aug-22 09:00N 62°06' E 007°11'0 0.0
2019-Aug-22 08:30N 62°06' E 007°11'0 0.0
2019-Aug-22 07:57N 62°06' E 007°11'0 0.0
2019-Aug-22 07:24N 62°06' E 007°11'0 0.0
2019-Aug-22 06:53N 62°06' E 007°11'0 0.0
2019-Aug-22 06:29N 62°06' E 007°11'0 0.0
2019-Aug-22 05:59N 62°06' E 007°11'0 0.0
2019-Aug-22 05:29N 62°06' E 007°11'0 0.2
2019-Aug-22 05:00N 62°06' E 007°11'4 8.8
2019-Aug-22 04:30N 62°05' E 007°02'5 9.0
2019-Aug-22 04:00N 62°10' E 007°01'712.8
2019-Aug-22 03:28N 62°17' E 007°01'612.0
2019-Aug-22 03:00N 62°22' E 006°55'10 9.5
2019-Aug-22 02:00N 62°27' E 006°38'612.3
2019-Aug-22 01:30N 62°25' E 006°26'713.0
2019-Aug-22 01:00N 62°22' E 006°13'712.6
2019-Aug-22 00:26N 62°17' E 006°01'512.3
2019-Aug-22 00:00N 62°13' E 005°54'713.1
2019-Aug-21 23:29N 62°11' E 005°40'611.6
2019-Aug-21 23:00N 62°12' E 005°28'5 9.2
2019-Aug-21 22:30N 62°11' E 005°19'510.3
2019-Aug-21 21:59N 62°13' E 005°08'510.8
2019-Aug-21 21:30N 62°08' E 005°05'612.1
2019-Aug-21 20:59N 62°02' E 005°09'510.6
2019-Aug-21 20:30N 61°57' E 005°09'4 7.7
2019-Aug-21 20:00N 61°53' E 005°10'4 8.6
2019-Aug-21 19:30N 61°50' E 005°15'612.5
2019-Aug-21 19:00N 61°46' E 005°03'611.9
2019-Aug-21 18:30N 61°41' E 004°58'611.9
2019-Aug-21 18:00N 61°35' E 004°57'611.1
2019-Aug-21 17:30N 61°30' E 004°59'612.1
2019-Aug-21 17:00N 61°25' E 004°51'612.4
2019-Aug-21 16:30N 61°19' E 004°48'611.7
2019-Aug-21 16:00N 61°14' E 004°40'611.8
2019-Aug-21 15:30N 61°12' E 004°29'612.0
2019-Aug-21 15:00N 61°08' E 004°21'612.4
2019-Aug-21 14:30N 61°02' E 004°20'713.0
2019-Aug-21 14:00N 60°55' E 004°24'613.0
2019-Aug-21 13:30N 60°49' E 004°27'611.1
2019-Aug-21 13:00N 60°45' E 004°36'611.5
2019-Aug-21 12:30N 60°43' E 004°47'612.2
2019-Aug-21 11:59N 60°38' E 004°53'612.7
2019-Aug-21 11:30N 60°32' E 004°57'612.8
2019-Aug-21 11:00N 60°26' E 005°02'611.0
2019-Aug-21 10:30N 60°23' E 005°12'3 6.7
2019-Aug-21 10:00N 60°24' E 005°19'0 0.0
2019-Aug-21 09:30N 60°24' E 005°19'0 0.0
2019-Aug-21 08:50N 60°24' E 005°19'0 0.0
2019-Aug-21 08:08N 60°24' E 005°19'0 0.0
2019-Aug-21 07:59N 60°24' E 005°19'0 0.0
2019-Aug-21 07:29N 60°24' E 005°19'0 0.0
2019-Aug-21 06:56N 60°24' E 005°19'0 0.0
2019-Aug-21 06:29N 60°24' E 005°19'0 0.0
2019-Aug-21 05:44N 60°24' E 005°19'0 0.0
2019-Aug-21 05:17N 60°24' E 005°19'0 0.0
2019-Aug-21 04:47N 60°24' E 005°19'0 0.0
2019-Aug-21 04:17N 60°24' E 005°19'0 0.0
2019-Aug-21 03:53N 60°24' E 005°19'0 0.0
2019-Aug-21 03:11N 60°24' E 005°19'0 0.0
2019-Aug-21 02:47N 60°24' E 005°19'0 0.0
2019-Aug-21 02:11N 60°24' E 005°19'0 0.0
2019-Aug-21 01:44N 60°24' E 005°19'0 0.0
2019-Aug-21 01:29N 60°24' E 005°19'0 0.0
2019-Aug-21 00:50N 60°24' E 005°19'0 0.0
2019-Aug-21 00:29N 60°24' E 005°19'0 0.0
2019-Aug-20 22:32N 60°24' E 005°19'0 0.0
2019-Aug-20 22:23N 60°24' E 005°19'0 0.0
2019-Aug-20 21:53N 60°24' E 005°19'0 0.0
2019-Aug-20 21:23N 60°24' E 005°19'0 0.0
2019-Aug-20 20:50N 60°24' E 005°19'0 0.0
2019-Aug-20 20:08N 60°24' E 005°19'0 0.0
2019-Aug-20 19:35N 60°24' E 005°19'0 0.0
2019-Aug-20 19:11N 60°24' E 005°19'0 0.0
2019-Aug-20 18:53N 60°24' E 005°19'0 0.0
2019-Aug-20 18:29N 60°24' E 005°19'0 0.0
2019-Aug-20 17:41N 60°24' E 005°19'0 0.0
2019-Aug-20 16:59N 60°24' E 005°19'0 0.0
2019-Aug-20 16:29N 60°24' E 005°19'0 0.0
2019-Aug-20 15:59N 60°24' E 005°19'0 0.0
2019-Aug-20 15:23N 60°24' E 005°19'0 0.0
2019-Aug-20 14:47N 60°24' E 005°19'0 0.0
2019-Aug-20 14:23N 60°24' E 005°19'0 0.0
2019-Aug-20 13:41N 60°24' E 005°19'0 0.0
2019-Aug-20 13:23N 60°24' E 005°19'0 0.0
2019-Aug-20 12:53N 60°24' E 005°19'0 0.0
2019-Aug-20 12:17N 60°24' E 005°19'0 0.0
2019-Aug-20 11:47N 60°24' E 005°19'0 0.0
2019-Aug-20 11:17N 60°24' E 005°19'0 0.0
2019-Aug-20 10:55N 60°24' E 005°19'0 0.0
2019-Aug-20 09:29N 60°24' E 005°19'0 0.0
2019-Aug-20 08:36N 60°24' E 005°19'0 0.0
2019-Aug-20 08:11N 60°24' E 005°19'0 0.0
2019-Aug-20 06:39N 60°24' E 005°19'0 0.0
2019-Aug-20 06:29N 60°24' E 005°19'3 5.6
2019-Aug-20 05:59N 60°24' E 005°13'5 9.6
2019-Aug-20 05:30N 60°19' E 005°12'612.8
2019-Aug-20 04:59N 60°13' E 005°11'611.2
2019-Aug-20 04:30N 60°09' E 005°03'5 9.8
2019-Aug-20 03:59N 60°06' E 004°55'611.4
2019-Aug-20 03:30N 60°01' E 004°49'510.8
2019-Aug-20 03:00N 59°56' E 004°45'611.3
2019-Aug-20 02:29N 59°50' E 004°42'511.0
2019-Aug-20 02:00N 59°45' E 004°38'511.1
2019-Aug-20 01:30N 59°40' E 004°34'612.3
2019-Aug-20 01:00N 59°34' E 004°30'612.6
2019-Aug-20 00:30N 59°28' E 004°26'612.4
2019-Aug-20 00:00N 59°22' E 004°23'712.9
2019-Aug-19 23:30N 59°16' E 004°20'612.7
2019-Aug-19 23:00N 59°10' E 004°17'612.7
2019-Aug-19 22:30N 59°04' E 004°14'612.3
2019-Aug-19 22:00N 58°58' E 004°17'612.7
2019-Aug-19 21:30N 58°53' E 004°25'612.5
2019-Aug-19 21:00N 58°49' E 004°34'612.3
2019-Aug-19 20:30N 58°44' E 004°42'713.0
2019-Aug-19 20:00N 58°40' E 004°50'713.5
2019-Aug-19 19:30N 58°35' E 004°59'713.7
2019-Aug-19 19:00N 58°30' E 005°09'714.1
2019-Aug-19 18:30N 58°25' E 005°18'714.1
2019-Aug-19 18:00N 58°20' E 005°28'714.2
2019-Aug-19 17:30N 58°15' E 005°38'714.3
2019-Aug-19 17:00N 58°11' E 005°49'714.3
2019-Aug-19 16:30N 58°06' E 005°59'714.1
2019-Aug-19 16:00N 58°02' E 006°09'714.1
2019-Aug-19 15:31N 57°57' E 006°19'714.1
2019-Aug-19 15:00N 57°53' E 006°30'713.9
2019-Aug-19 14:30N 57°49' E 006°40'713.3
2019-Aug-19 14:00N 57°48' E 006°53'713.2
2019-Aug-19 13:30N 57°48' E 007°05'713.0
2019-Aug-19 13:00N 57°48' E 007°17'612.9
2019-Aug-19 12:30N 57°48' E 007°29'612.8
2019-Aug-19 12:00N 57°47' E 007°41'612.1
2019-Aug-19 11:31N 57°47' E 007°52'612.1
2019-Aug-19 11:00N 57°49' E 008°03'611.9
2019-Aug-19 10:30N 57°51' E 008°14'612.2
2019-Aug-19 10:00N 57°53' E 008°25'611.9
2019-Aug-19 09:30N 57°53' E 008°36'612.2
2019-Aug-19 09:00N 57°53' E 008°47'612.5
2019-Aug-19 08:29N 57°53' E 008°59'612.7
2019-Aug-19 07:59N 57°53' E 009°11'712.8
2019-Aug-19 07:28N 57°53' E 009°24'612.9
2019-Aug-19 06:59N 57°53' E 009°36'813.2
2019-Aug-19 06:21N 57°53' E 009°51'912.0
2019-Aug-19 05:34N 57°53' E 010°09'111.7
2019-Aug-19 05:30N 57°53' E 010°10'1911.7
2019-Aug-19 03:55N 57°49' E 010°44'512.1
2019-Aug-19 03:30N 57°47' E 010°53'611.9
2019-Aug-19 03:00N 57°42' E 011°01'612.5
2019-Aug-19 02:30N 57°38' E 011°09'612.8
2019-Aug-19 02:00N 57°34' E 011°18'612.5
2019-Aug-19 01:30N 57°29' E 011°25'612.5
2019-Aug-19 01:00N 57°23' E 011°29'612.5
2019-Aug-19 00:30N 57°17' E 011°33'612.8
2019-Aug-19 00:00N 57°11' E 011°37'612.5
2019-Aug-18 23:30N 57°05' E 011°41'811.9
2019-Aug-18 22:51N 56°58' E 011°45'5211.3
2019-Aug-18 18:16N 56°10' E 012°24'311.8
2019-Aug-18 18:00N 56°09' E 012°28'611.9
2019-Aug-18 17:30N 56°05' E 012°36'611.5
2019-Aug-18 17:00N 55°60' E 012°41'611.2
2019-Aug-18 16:30N 55°54' E 012°39'612.3
2019-Aug-18 16:00N 55°49' E 012°44'611.9
2019-Aug-18 15:30N 55°43' E 012°39'2 4.3
2019-Aug-18 15:00N 55°42' E 012°36'0 0.1
2019-Aug-18 14:30N 55°42' E 012°36'0 0.0
2019-Aug-18 13:54N 55°42' E 012°36'0 0.0
2019-Aug-18 13:30N 55°42' E 012°36'0 0.0
2019-Aug-18 12:45N 55°42' E 012°36'0 0.0
2019-Aug-18 12:24N 55°42' E 012°36'0 0.0
2019-Aug-18 11:53N 55°42' E 012°36'0 0.0
2019-Aug-18 11:24N 55°42' E 012°36'0 0.0
2019-Aug-18 11:00N 55°42' E 012°36'0 0.0
2019-Aug-18 10:30N 55°42' E 012°36'0 0.0
2019-Aug-18 09:48N 55°42' E 012°36'0 0.0
2019-Aug-18 09:24N 55°42' E 012°36'0 0.0
2019-Aug-18 09:00N 55°42' E 012°36'0 0.0
2019-Aug-18 08:19N 55°42' E 012°36'0 0.0
2019-Aug-18 07:56N 55°42' E 012°36'0 0.0
2019-Aug-18 07:00N 55°42' E 012°36'0 0.0
2019-Aug-18 06:24N 55°42' E 012°36'0 0.0
2019-Aug-18 05:51N 55°42' E 012°36'0 0.0
2019-Aug-18 05:30N 55°42' E 012°36'0 0.0
2019-Aug-18 05:00N 55°42' E 012°36'0 0.0
2019-Aug-18 04:24N 55°42' E 012°36'0 0.0
2019-Aug-18 03:54N 55°42' E 012°36'0 0.0
2019-Aug-18 03:28N 55°42' E 012°36'0 0.0
2019-Aug-18 02:50N 55°42' E 012°36'0 0.0
2019-Aug-18 02:27N 55°42' E 012°36'0 0.0
2019-Aug-18 01:30N 55°42' E 012°36'0 0.0
2019-Aug-18 01:00N 55°42' E 012°36'0 0.0
2019-Aug-18 00:03N 55°42' E 012°36'0 0.0
2019-Aug-18 00:00N 55°42' E 012°36'0 0.0
2019-Aug-17 23:15N 55°42' E 012°36'0 0.0
2019-Aug-17 22:48N 55°42' E 012°36'0 0.0
2019-Aug-17 22:22N 55°42' E 012°36'0 0.0
2019-Aug-17 22:00N 55°42' E 012°36'0 0.0
2019-Aug-17 21:13N 55°42' E 012°36'0 0.0
2019-Aug-17 20:54N 55°42' E 012°36'0 0.0
2019-Aug-17 20:21N 55°42' E 012°36'0 0.0
2019-Aug-17 20:00N 55°42' E 012°36'0 0.0
2019-Aug-17 19:30N 55°42' E 012°36'0 0.0
2019-Aug-17 18:57N 55°42' E 012°36'0 0.0
2019-Aug-17 18:24N 55°42' E 012°36'0 0.0
2019-Aug-17 17:13N 55°42' E 012°36'0 0.0
2019-Aug-17 16:55N 55°42' E 012°36'0 0.0
2019-Aug-17 16:30N 55°42' E 012°36'0 0.0
2019-Aug-17 16:00N 55°42' E 012°36'3 5.1
2019-Aug-17 15:30N 55°44' E 012°39'1 1.9
2019-Aug-17 15:00N 55°44' E 012°41'1 1.2
2019-Aug-17 14:30N 55°45' E 012°41'4 8.8
2019-Aug-17 14:00N 55°49' E 012°44'3 5.0
2019-Aug-17 13:30N 55°51' E 012°41'2 3.8
2019-Aug-17 13:00N 55°53' E 012°40'2 4.5
2019-Aug-17 12:30N 55°55' E 012°38'3 5.5
2019-Aug-17 12:00N 55°58' E 012°37'2 5.0
2019-Aug-17 11:30N 56°00' E 012°37'1 2.8
2019-Aug-17 11:00N 56°01' E 012°37'0 0.0
2019-Aug-17 10:30N 56°01' E 012°37'0 0.0
2019-Aug-17 10:00N 56°01' E 012°37'0 0.0
2019-Aug-17 09:30N 56°01' E 012°37'0 0.6
2019-Aug-17 09:01N 56°02' E 012°37'3 6.7
2019-Aug-17 08:30N 55°59' E 012°41'5 9.1
2019-Aug-17 08:01N 55°55' E 012°39'612.6
2019-Aug-17 07:31N 55°49' E 012°43'612.3
2019-Aug-17 07:01N 55°43' E 012°41'612.9
2019-Aug-17 06:30N 55°37' E 012°42'612.2
2019-Aug-17 06:01N 55°31' E 012°43'713.5
2019-Aug-17 05:31N 55°24' E 012°41'612.1
2019-Aug-17 05:01N 55°18' E 012°42'612.6
2019-Aug-17 04:30N 55°16' E 012°53'6012.9
2019-Aug-16 23:51N 55°27' E 014°37'513.4
2019-Aug-16 23:29N 55°30' E 014°44'611.6
2019-Aug-16 22:59N 55°32' E 014°53'714.2
2019-Aug-16 22:30N 55°35' E 015°05'714.1
2019-Aug-16 22:00N 55°37' E 015°16'714.1
2019-Aug-16 21:30N 55°39' E 015°28'714.2
2019-Aug-16 21:00N 55°41' E 015°40'714.2
2019-Aug-16 20:30N 55°43' E 015°52'714.2
2019-Aug-16 20:01N 55°45' E 016°05'714.2
2019-Aug-16 19:31N 55°46' E 016°17'714.1
2019-Aug-16 19:00N 55°48' E 016°29'714.0
2019-Aug-16 18:30N 55°50' E 016°41'714.0
2019-Aug-16 18:00N 55°52' E 016°53'1614.0
2019-Aug-16 16:52N 55°56' E 017°21'27113.8
2019-Aug-15 21:12N 59°30' E 022°33'314.6
2019-Aug-15 21:00N 59°32' E 022°38'714.2
2019-Aug-15 20:30N 59°34' E 022°51'714.6
2019-Aug-15 20:01N 59°36' E 023°05'714.5
2019-Aug-15 19:30N 59°38' E 023°19'714.2
2019-Aug-15 19:00N 59°40' E 023°32'714.0
2019-Aug-15 18:29N 59°42' E 023°46'1714.3
2019-Aug-15 17:19N 59°46' E 024°18'413.5
2019-Aug-15 17:00N 59°47' E 024°26'713.7
2019-Aug-15 16:30N 59°49' E 024°39'713.5
2019-Aug-15 16:00N 59°52' E 024°51'711.3
2019-Aug-15 15:24N 59°58' E 024°57'514.3
2019-Aug-15 15:00N 60°04' E 024°58'510.4
2019-Aug-15 14:30N 60°09' E 024°60'2 3.2
2019-Aug-15 13:58N 60°10' E 024°57'0 0.0
2019-Aug-15 13:28N 60°10' E 024°57'0 0.0
2019-Aug-15 12:58N 60°10' E 024°57'0 0.0
2019-Aug-15 12:30N 60°10' E 024°57'0 0.0
2019-Aug-15 12:00N 60°10' E 024°57'0 0.0
2019-Aug-15 11:29N 60°10' E 024°57'0 0.0
2019-Aug-15 11:00N 60°10' E 024°57'0 0.0
2019-Aug-15 10:30N 60°10' E 024°57'0 0.0
2019-Aug-15 09:58N 60°10' E 024°57'0 0.0
2019-Aug-15 09:29N 60°10' E 024°57'0 0.0
2019-Aug-15 08:58N 60°10' E 024°57'0 0.0
2019-Aug-15 08:28N 60°10' E 024°57'0 0.0
2019-Aug-15 07:58N 60°10' E 024°57'0 0.0
2019-Aug-15 07:30N 60°10' E 024°57'1 2.6
2019-Aug-15 07:01N 60°09' E 024°60'510.2
2019-Aug-15 06:30N 60°04' E 024°58'510.2
2019-Aug-15 06:00N 59°59' E 024°57'611.2
2019-Aug-15 05:30N 59°57' E 025°07'612.3
2019-Aug-15 05:00N 59°56' E 025°19'812.2
2019-Aug-15 04:20N 59°55' E 025°35'1912.1
2019-Aug-15 02:46N 59°59' E 026°12'312.2
2019-Aug-15 02:30N 59°60' E 026°18'612.2
2019-Aug-15 02:00N 60°01' E 026°30'612.0
2019-Aug-15 01:30N 60°01' E 026°42'612.3
2019-Aug-15 01:00N 60°00' E 026°54'611.6
2019-Aug-15 00:29N 60°01' E 027°06'612.6
2019-Aug-15 00:00N 60°04' E 027°16'612.5
2019-Aug-14 23:30N 60°07' E 027°27'612.1
2019-Aug-14 23:00N 60°10' E 027°38'611.6
2019-Aug-14 22:30N 60°12' E 027°49'612.4
2019-Aug-14 22:01N 60°11' E 028°01'612.2
2019-Aug-14 21:30N 60°09' E 028°12'611.6
2019-Aug-14 21:00N 60°06' E 028°22'612.1
2019-Aug-14 20:30N 60°03' E 028°33'612.3
2019-Aug-14 20:00N 60°03' E 028°45'712.3
2019-Aug-14 19:28N 60°02' E 028°59'912.6
2019-Aug-14 18:46N 60°02' E 029°17'1611.3
2019-Aug-14 17:21N 59°58' E 029°47'310.0
2019-Aug-14 17:00N 59°57' E 029°54'5 9.9
2019-Aug-14 16:30N 59°55' E 030°03'4 8.3
2019-Aug-14 16:00N 59°53' E 030°10'3 5.5
2019-Aug-14 15:30N 59°55' E 030°15'2 3.3
2019-Aug-14 15:00N 59°56' E 030°17'0 0.0
2019-Aug-14 14:30N 59°56' E 030°17'0 0.0
2019-Aug-14 14:01N 59°56' E 030°17'0 0.0
2019-Aug-14 13:28N 59°56' E 030°17'0 0.0
2019-Aug-14 12:58N 59°56' E 030°17'0 0.0
2019-Aug-14 12:28N 59°56' E 030°17'0 0.0
2019-Aug-14 11:58N 59°56' E 030°17'0 0.0
2019-Aug-14 11:28N 59°56' E 030°17'0 0.0
2019-Aug-14 11:00N 59°56' E 030°17'0 0.0
2019-Aug-14 10:29N 59°56' E 030°17'0 0.0
2019-Aug-14 09:58N 59°56' E 030°17'0 0.0
2019-Aug-14 09:28N 59°56' E 030°17'0 0.0
2019-Aug-14 08:58N 59°56' E 030°17'0 0.0
2019-Aug-14 08:28N 59°56' E 030°17'0 0.0
2019-Aug-14 07:55N 59°56' E 030°17'0 0.0
2019-Aug-14 07:29N 59°56' E 030°17'0 0.0
2019-Aug-14 07:00N 59°56' E 030°17'0 0.0
2019-Aug-14 06:30N 59°56' E 030°17'0 0.0
2019-Aug-14 05:59N 59°56' E 030°17'0 0.0
2019-Aug-14 05:29N 59°56' E 030°17'0 0.0
2019-Aug-14 04:59N 59°56' E 030°17'0 0.0
2019-Aug-14 04:29N 59°56' E 030°17'0 0.0
2019-Aug-14 03:59N 59°56' E 030°17'0 0.0
2019-Aug-14 03:29N 59°56' E 030°17'0 0.0
2019-Aug-14 02:56N 59°56' E 030°17'0 0.0
2019-Aug-14 02:29N 59°56' E 030°17'0 0.0
2019-Aug-14 01:59N 59°56' E 030°17'0 0.0
2019-Aug-14 01:29N 59°56' E 030°17'0 0.0
2019-Aug-14 00:59N 59°56' E 030°17'0 0.0
2019-Aug-14 00:30N 59°56' E 030°17'0 0.0
2019-Aug-14 00:00N 59°56' E 030°17'0 0.0
2019-Aug-13 23:30N 59°56' E 030°17'0 0.0
2019-Aug-13 22:59N 59°56' E 030°17'0 0.0
2019-Aug-13 22:28N 59°56' E 030°17'0 0.0
2019-Aug-13 21:58N 59°56' E 030°17'0 0.0
2019-Aug-13 21:28N 59°56' E 030°17'0 0.0
2019-Aug-13 21:00N 59°56' E 030°17'0 0.0
2019-Aug-13 20:29N 59°56' E 030°17'0 0.0
2019-Aug-13 19:59N 59°56' E 030°17'  
Track history (hours):
 
Tides and Currents Weather Stations Pressure Air Temp Water Temp Dewpoint Dewpoint Depression Visibility Wind Speed Wind Dir Waves Ship Positions

Seabourn Pride

Operator: Cunard Seabourn

Last reported at 2019-Aug-23 19:32 UTC. Time now 2019-Aug-24 08:00 UTC.
Position N 62°58' E 003°11'.

Length 134 m; draft 5.7 m.

Type: Ship. MMSI: 311084000.

Date/timePositionNaut miles runAvg speedWind from/ knotsBaromVisibWave heightAir tempDewpointWater temp
2019-Aug-23 19:32N 62°58' E 003°11'114.2
2019-Aug-23 19:26N 62°58' E 003°14'614.2
2019-Aug-23 19:00N 62°55' E 003°26'714.3
2019-Aug-23 18:30N 62°52' E 003°41'713.9
2019-Aug-23 18:00N 62°50' E 003°55'713.6
2019-Aug-23 17:30N 62°49' E 004°10'713.8
2019-Aug-23 17:00N 62°47' E 004°24'713.8
2019-Aug-23 16:30N 62°44' E 004°38'713.8
2019-Aug-23 16:00N 62°41' E 004°51'713.9
2019-Aug-23 15:30N 62°38' E 005°05'713.8
2019-Aug-23 15:00N 62°36' E 005°19'713.2
2019-Aug-23 14:30N 62°33' E 005°32'713.8
2019-Aug-23 13:59N 62°29' E 005°45'714.0
2019-Aug-23 13:30N 62°27' E 005°59'510.4
2019-Aug-23 13:00N 62°28' E 006°10'0 1.0
2019-Aug-23 12:30N 62°28' E 006°09'0 0.0
2019-Aug-23 12:00N 62°28' E 006°09'0 0.0
2019-Aug-23 11:30N 62°28' E 006°09'0 0.0
2019-Aug-23 10:59N 62°28' E 006°09'0 0.0
2019-Aug-23 10:30N 62°28' E 006°09'0 0.0
2019-Aug-23 10:00N 62°28' E 006°09'0 0.0
2019-Aug-23 09:30N 62°28' E 006°09'0 0.0
2019-Aug-23 09:00N 62°28' E 006°09'0 0.0
2019-Aug-23 08:30N 62°28' E 006°09'0 0.0
2019-Aug-23 08:00N 62°28' E 006°09'0 0.0
2019-Aug-23 07:30N 62°28' E 006°09'0 0.0
2019-Aug-23 07:00N 62°28' E 006°09'0 0.0
2019-Aug-23 06:30N 62°28' E 006°09'0 0.0
2019-Aug-23 06:00N 62°28' E 006°09'0 0.0
2019-Aug-23 05:30N 62°28' E 006°09'0 0.0
2019-Aug-23 05:00N 62°28' E 006°09'1 1.8
2019-Aug-23 04:30N 62°28' E 006°11'5 9.5
2019-Aug-23 04:00N 62°27' E 006°00'3 6.9
2019-Aug-23 03:30N 62°27' E 005°53'3 6.2
2019-Aug-23 03:00N 62°29' E 005°47'3 6.1
2019-Aug-23 02:30N 62°31' E 005°42'3 5.8
2019-Aug-23 02:00N 62°32' E 005°37'3 5.0
2019-Aug-23 01:29N 62°34' E 005°33'2 5.0
2019-Aug-23 01:00N 62°35' E 005°28'3 5.7
2019-Aug-23 00:30N 62°35' E 005°22'3 6.3
2019-Aug-23 00:00N 62°36' E 005°15'1 2.9
2019-Aug-22 23:30N 62°35' E 005°18'3 6.4
2019-Aug-22 23:00N 62°35' E 005°25'3 6.3
2019-Aug-22 22:30N 62°35' E 005°32'3 6.7
2019-Aug-22 22:00N 62°32' E 005°37'3 6.6
2019-Aug-22 21:30N 62°30' E 005°43'510.5
2019-Aug-22 21:00N 62°28' E 005°53'510.6
2019-Aug-22 20:29N 62°25' E 006°03'511.0
2019-Aug-22 20:00N 62°23' E 006°14'611.6
2019-Aug-22 19:30N 62°25' E 006°26'711.5
2019-Aug-22 18:55N 62°27' E 006°39'611.1
2019-Aug-22 18:22N 62°26' E 006°53'410.8
2019-Aug-22 18:00N 62°23' E 006°55'611.5
2019-Aug-22 17:30N 62°17' E 007°01'611.4
2019-Aug-22 17:00N 62°12' E 007°02'510.7
2019-Aug-22 16:30N 62°07' E 006°56'3 3.1
2019-Aug-22 15:42N 62°05' E 006°53'0 0.0
2019-Aug-22 15:18N 62°05' E 006°53'0 0.0
2019-Aug-22 14:48N 62°05' E 006°53'0 0.0
2019-Aug-22 14:24N 62°05' E 006°53'0 0.0
2019-Aug-22 13:36N 62°05' E 006°53'0 0.0
2019-Aug-22 13:18N 62°05' E 006°53'0 0.0
2019-Aug-22 12:42N 62°05' E 006°53'0 0.0
2019-Aug-22 12:30N 62°05' E 006°53'0 0.0
2019-Aug-22 11:53N 62°05' E 006°53'1 1.6
2019-Aug-22 11:20N 62°06' E 006°54'3 9.5
2019-Aug-22 11:00N 62°06' E 007°01'4 8.6
2019-Aug-22 10:30N 62°07' E 007°09'1 2.4
2019-Aug-22 10:00N 62°06' E 007°11'0 0.0
2019-Aug-22 09:30N 62°06' E 007°11'0 0.0
2019-Aug-22 09:00N 62°06' E 007°11'0 0.0
2019-Aug-22 08:30N 62°06' E 007°11'0 0.0
2019-Aug-22 07:57N 62°06' E 007°11'0 0.0
2019-Aug-22 07:24N 62°06' E 007°11'0 0.0
2019-Aug-22 06:53N 62°06' E 007°11'0 0.0
2019-Aug-22 06:29N 62°06' E 007°11'0 0.0
2019-Aug-22 05:59N 62°06' E 007°11'0 0.0
2019-Aug-22 05:29N 62°06' E 007°11'0 0.2
2019-Aug-22 05:00N 62°06' E 007°11'4 8.8
2019-Aug-22 04:30N 62°05' E 007°02'5 9.0
2019-Aug-22 04:00N 62°10' E 007°01'712.8
2019-Aug-22 03:28N 62°17' E 007°01'612.0
2019-Aug-22 03:00N 62°22' E 006°55'10 9.5
2019-Aug-22 02:00N 62°27' E 006°38'612.3
2019-Aug-22 01:30N 62°25' E 006°26'713.0
2019-Aug-22 01:00N 62°22' E 006°13'712.6
2019-Aug-22 00:26N 62°17' E 006°01'512.3
2019-Aug-22 00:00N 62°13' E 005°54'713.1
2019-Aug-21 23:29N 62°11' E 005°40'611.6
2019-Aug-21 23:00N 62°12' E 005°28'5 9.2
2019-Aug-21 22:30N 62°11' E 005°19'510.3
2019-Aug-21 21:59N 62°13' E 005°08'510.8
2019-Aug-21 21:30N 62°08' E 005°05'612.1
2019-Aug-21 20:59N 62°02' E 005°09'510.6
2019-Aug-21 20:30N 61°57' E 005°09'4 7.7
2019-Aug-21 20:00N 61°53' E 005°10'4 8.6
2019-Aug-21 19:30N 61°50' E 005°15'612.5
2019-Aug-21 19:00N 61°46' E 005°03'611.9
2019-Aug-21 18:30N 61°41' E 004°58'611.9
2019-Aug-21 18:00N 61°35' E 004°57'611.1
2019-Aug-21 17:30N 61°30' E 004°59'612.1
2019-Aug-21 17:00N 61°25' E 004°51'612.4
2019-Aug-21 16:30N 61°19' E 004°48'611.7
2019-Aug-21 16:00N 61°14' E 004°40'611.8
2019-Aug-21 15:30N 61°12' E 004°29'612.0
2019-Aug-21 15:00N 61°08' E 004°21'612.4
2019-Aug-21 14:30N 61°02' E 004°20'713.0
2019-Aug-21 14:00N 60°55' E 004°24'613.0
2019-Aug-21 13:30N 60°49' E 004°27'611.1
2019-Aug-21 13:00N 60°45' E 004°36'611.5
2019-Aug-21 12:30N 60°43' E 004°47'612.2
2019-Aug-21 11:59N 60°38' E 004°53'612.7
2019-Aug-21 11:30N 60°32' E 004°57'612.8
2019-Aug-21 11:00N 60°26' E 005°02'611.0
2019-Aug-21 10:30N 60°23' E 005°12'3 6.7
2019-Aug-21 10:00N 60°24' E 005°19'0 0.0
2019-Aug-21 09:30N 60°24' E 005°19'0 0.0
2019-Aug-21 08:50N 60°24' E 005°19'0 0.0
2019-Aug-21 08:08N 60°24' E 005°19'0 0.0
2019-Aug-21 07:59N 60°24' E 005°19'0 0.0
2019-Aug-21 07:29N 60°24' E 005°19'0 0.0
2019-Aug-21 06:56N 60°24' E 005°19'0 0.0
2019-Aug-21 06:29N 60°24' E 005°19'0 0.0
2019-Aug-21 05:44N 60°24' E 005°19'0 0.0
2019-Aug-21 05:17N 60°24' E 005°19'0 0.0
2019-Aug-21 04:47N 60°24' E 005°19'0 0.0
2019-Aug-21 04:17N 60°24' E 005°19'0 0.0
2019-Aug-21 03:53N 60°24' E 005°19'0 0.0
2019-Aug-21 03:11N 60°24' E 005°19'0 0.0
2019-Aug-21 02:47N 60°24' E 005°19'0 0.0
2019-Aug-21 02:11N 60°24' E 005°19'0 0.0
2019-Aug-21 01:44N 60°24' E 005°19'0 0.0
2019-Aug-21 01:29N 60°24' E 005°19'0 0.0
2019-Aug-21 00:50N 60°24' E 005°19'0 0.0
2019-Aug-21 00:29N 60°24' E 005°19'0 0.0
2019-Aug-20 22:32N 60°24' E 005°19'0 0.0
2019-Aug-20 22:23N 60°24' E 005°19'0 0.0
2019-Aug-20 21:53N 60°24' E 005°19'0 0.0
2019-Aug-20 21:23N 60°24' E 005°19'0 0.0
2019-Aug-20 20:50N 60°24' E 005°19'0 0.0
2019-Aug-20 20:08N 60°24' E 005°19'0 0.0
2019-Aug-20 19:35N 60°24' E 005°19'0 0.0
2019-Aug-20 19:11N 60°24' E 005°19'0 0.0
2019-Aug-20 18:53N 60°24' E 005°19'0 0.0
2019-Aug-20 18:29N 60°24' E 005°19'0 0.0
2019-Aug-20 17:41N 60°24' E 005°19'0 0.0
2019-Aug-20 16:59N 60°24' E 005°19'0 0.0
2019-Aug-20 16:29N 60°24' E 005°19'0 0.0
2019-Aug-20 15:59N 60°24' E 005°19'0 0.0
2019-Aug-20 15:23N 60°24' E 005°19'0 0.0
2019-Aug-20 14:47N 60°24' E 005°19'0 0.0
2019-Aug-20 14:23N 60°24' E 005°19'0 0.0
2019-Aug-20 13:41N 60°24' E 005°19'0 0.0
2019-Aug-20 13:23N 60°24' E 005°19'0 0.0
2019-Aug-20 12:53N 60°24' E 005°19'0 0.0
2019-Aug-20 12:17N 60°24' E 005°19'0 0.0
2019-Aug-20 11:47N 60°24' E 005°19'0 0.0
2019-Aug-20 11:17N 60°24' E 005°19'0 0.0
2019-Aug-20 10:55N 60°24' E 005°19'0 0.0
2019-Aug-20 09:29N 60°24' E 005°19'0 0.0
2019-Aug-20 08:36N 60°24' E 005°19'0 0.0
2019-Aug-20 08:11N 60°24' E 005°19'0 0.0
2019-Aug-20 06:39N 60°24' E 005°19'0 0.0
2019-Aug-20 06:29N 60°24' E 005°19'3 5.6
2019-Aug-20 05:59N 60°24' E 005°13'5 9.6
2019-Aug-20 05:30N 60°19' E 005°12'612.8
2019-Aug-20 04:59N 60°13' E 005°11'611.2
2019-Aug-20 04:30N 60°09' E 005°03'5 9.8
2019-Aug-20 03:59N 60°06' E 004°55'611.4
2019-Aug-20 03:30N 60°01' E 004°49'510.8
2019-Aug-20 03:00N 59°56' E 004°45'611.3
2019-Aug-20 02:29N 59°50' E 004°42'511.0
2019-Aug-20 02:00N 59°45' E 004°38'511.1
2019-Aug-20 01:30N 59°40' E 004°34'612.3
2019-Aug-20 01:00N 59°34' E 004°30'612.6
2019-Aug-20 00:30N 59°28' E 004°26'612.4
2019-Aug-20 00:00N 59°22' E 004°23'712.9
2019-Aug-19 23:30N 59°16' E 004°20'612.7
2019-Aug-19 23:00N 59°10' E 004°17'612.7
2019-Aug-19 22:30N 59°04' E 004°14'612.3
2019-Aug-19 22:00N 58°58' E 004°17'612.7
2019-Aug-19 21:30N 58°53' E 004°25'612.5
2019-Aug-19 21:00N 58°49' E 004°34'612.3
2019-Aug-19 20:30N 58°44' E 004°42'713.0
2019-Aug-19 20:00N 58°40' E 004°50'713.5
2019-Aug-19 19:30N 58°35' E 004°59'713.7
2019-Aug-19 19:00N 58°30' E 005°09'714.1
2019-Aug-19 18:30N 58°25' E 005°18'714.1
2019-Aug-19 18:00N 58°20' E 005°28'714.2
2019-Aug-19 17:30N 58°15' E 005°38'714.3
2019-Aug-19 17:00N 58°11' E 005°49'714.3
2019-Aug-19 16:30N 58°06' E 005°59'714.1
2019-Aug-19 16:00N 58°02' E 006°09'714.1
2019-Aug-19 15:31N 57°57' E 006°19'714.1
2019-Aug-19 15:00N 57°53' E 006°30'713.9
2019-Aug-19 14:30N 57°49' E 006°40'713.3
2019-Aug-19 14:00N 57°48' E 006°53'713.2
2019-Aug-19 13:30N 57°48' E 007°05'713.0
2019-Aug-19 13:00N 57°48' E 007°17'612.9
2019-Aug-19 12:30N 57°48' E 007°29'612.8
2019-Aug-19 12:00N 57°47' E 007°41'612.1
2019-Aug-19 11:31N 57°47' E 007°52'612.1
2019-Aug-19 11:00N 57°49' E 008°03'611.9
2019-Aug-19 10:30N 57°51' E 008°14'612.2
2019-Aug-19 10:00N 57°53' E 008°25'611.9
2019-Aug-19 09:30N 57°53' E 008°36'612.2
2019-Aug-19 09:00N 57°53' E 008°47'612.5
2019-Aug-19 08:29N 57°53' E 008°59'612.7
2019-Aug-19 07:59N 57°53' E 009°11'712.8
2019-Aug-19 07:28N 57°53' E 009°24'612.9
2019-Aug-19 06:59N 57°53' E 009°36'813.2
2019-Aug-19 06:21N 57°53' E 009°51'912.0
2019-Aug-19 05:34N 57°53' E 010°09'111.7
2019-Aug-19 05:30N 57°53' E 010°10'1911.7
2019-Aug-19 03:55N 57°49' E 010°44'512.1
2019-Aug-19 03:30N 57°47' E 010°53'611.9
2019-Aug-19 03:00N 57°42' E 011°01'612.5
2019-Aug-19 02:30N 57°38' E 011°09'612.8
2019-Aug-19 02:00N 57°34' E 011°18'612.5
2019-Aug-19 01:30N 57°29' E 011°25'612.5
2019-Aug-19 01:00N 57°23' E 011°29'612.5
2019-Aug-19 00:30N 57°17' E 011°33'612.8
2019-Aug-19 00:00N 57°11' E 011°37'612.5
2019-Aug-18 23:30N 57°05' E 011°41'811.9
2019-Aug-18 22:51N 56°58' E 011°45'5211.3
2019-Aug-18 18:16N 56°10' E 012°24'311.8
2019-Aug-18 18:00N 56°09' E 012°28'611.9
2019-Aug-18 17:30N 56°05' E 012°36'611.5
2019-Aug-18 17:00N 55°60' E 012°41'611.2
2019-Aug-18 16:30N 55°54' E 012°39'612.3
2019-Aug-18 16:00N 55°49' E 012°44'611.9
2019-Aug-18 15:30N 55°43' E 012°39'2 4.3
2019-Aug-18 15:00N 55°42' E 012°36'0 0.1
2019-Aug-18 14:30N 55°42' E 012°36'0 0.0
2019-Aug-18 13:54N 55°42' E 012°36'0 0.0
2019-Aug-18 13:30N 55°42' E 012°36'0 0.0
2019-Aug-18 12:45N 55°42' E 012°36'0 0.0
2019-Aug-18 12:24N 55°42' E 012°36'0 0.0
2019-Aug-18 11:53N 55°42' E 012°36'0 0.0
2019-Aug-18 11:24N 55°42' E 012°36'0 0.0
2019-Aug-18 11:00N 55°42' E 012°36'0 0.0
2019-Aug-18 10:30N 55°42' E 012°36'0 0.0
2019-Aug-18 09:48N 55°42' E 012°36'0 0.0
2019-Aug-18 09:24N 55°42' E 012°36'0 0.0
2019-Aug-18 09:00N 55°42' E 012°36'0 0.0
2019-Aug-18 08:19N 55°42' E 012°36'0 0.0
2019-Aug-18 07:56N 55°42' E 012°36'0 0.0
2019-Aug-18 07:00N 55°42' E 012°36'0 0.0
2019-Aug-18 06:24N 55°42' E 012°36'0 0.0
2019-Aug-18 05:51N 55°42' E 012°36'0 0.0
2019-Aug-18 05:30N 55°42' E 012°36'0 0.0
2019-Aug-18 05:00N 55°42' E 012°36'0 0.0
2019-Aug-18 04:24N 55°42' E 012°36'0 0.0
2019-Aug-18 03:54N 55°42' E 012°36'0 0.0
2019-Aug-18 03:28N 55°42' E 012°36'0 0.0
2019-Aug-18 02:50N 55°42' E 012°36'0 0.0
2019-Aug-18 02:27N 55°42' E 012°36'0 0.0
2019-Aug-18 01:30N 55°42' E 012°36'0 0.0
2019-Aug-18 01:00N 55°42' E 012°36'0 0.0
2019-Aug-18 00:03N 55°42' E 012°36'0 0.0
2019-Aug-18 00:00N 55°42' E 012°36'0 0.0
2019-Aug-17 23:15N 55°42' E 012°36'0 0.0
2019-Aug-17 22:48N 55°42' E 012°36'0 0.0
2019-Aug-17 22:22N 55°42' E 012°36'0 0.0
2019-Aug-17 22:00N 55°42' E 012°36'0 0.0
2019-Aug-17 21:13N 55°42' E 012°36'0 0.0
2019-Aug-17 20:54N 55°42' E 012°36'0 0.0
2019-Aug-17 20:21N 55°42' E 012°36'0 0.0
2019-Aug-17 20:00N 55°42' E 012°36'0 0.0
2019-Aug-17 19:30N 55°42' E 012°36'0 0.0
2019-Aug-17 18:57N 55°42' E 012°36'0 0.0
2019-Aug-17 18:24N 55°42' E 012°36'0 0.0
2019-Aug-17 17:13N 55°42' E 012°36'0 0.0
2019-Aug-17 16:55N 55°42' E 012°36'0 0.0
2019-Aug-17 16:30N 55°42' E 012°36'0 0.0
2019-Aug-17 16:00N 55°42' E 012°36'3 5.1
2019-Aug-17 15:30N 55°44' E 012°39'1 1.9
2019-Aug-17 15:00N 55°44' E 012°41'1 1.2
2019-Aug-17 14:30N 55°45' E 012°41'4 8.8
2019-Aug-17 14:00N 55°49' E 012°44'3 5.0
2019-Aug-17 13:30N 55°51' E 012°41'2 3.8
2019-Aug-17 13:00N 55°53' E 012°40'2 4.5
2019-Aug-17 12:30N 55°55' E 012°38'3 5.5
2019-Aug-17 12:00N 55°58' E 012°37'2 5.0
2019-Aug-17 11:30N 56°00' E 012°37'1 2.8
2019-Aug-17 11:00N 56°01' E 012°37'0 0.0
2019-Aug-17 10:30N 56°01' E 012°37'0 0.0
2019-Aug-17 10:00N 56°01' E 012°37'0 0.0
2019-Aug-17 09:30N 56°01' E 012°37'0 0.6
2019-Aug-17 09:01N 56°02' E 012°37'3 6.7
2019-Aug-17 08:30N 55°59' E 012°41'5 9.1
2019-Aug-17 08:01N 55°55' E 012°39'612.6
2019-Aug-17 07:31N 55°49' E 012°43'612.3
2019-Aug-17 07:01N 55°43' E 012°41'612.9
2019-Aug-17 06:30N 55°37' E 012°42'612.2
2019-Aug-17 06:01N 55°31' E 012°43'713.5
2019-Aug-17 05:31N 55°24' E 012°41'612.1
2019-Aug-17 05:01N 55°18' E 012°42'612.6
2019-Aug-17 04:30N 55°16' E 012°53'6012.9
2019-Aug-16 23:51N 55°27' E 014°37'513.4
2019-Aug-16 23:29N 55°30' E 014°44'611.6
2019-Aug-16 22:59N 55°32' E 014°53'714.2
2019-Aug-16 22:30N 55°35' E 015°05'714.1
2019-Aug-16 22:00N 55°37' E 015°16'714.1
2019-Aug-16 21:30N 55°39' E 015°28'714.2
2019-Aug-16 21:00N 55°41' E 015°40'714.2
2019-Aug-16 20:30N 55°43' E 015°52'714.2
2019-Aug-16 20:01N 55°45' E 016°05'714.2
2019-Aug-16 19:31N 55°46' E 016°17'714.1
2019-Aug-16 19:00N 55°48' E 016°29'714.0
2019-Aug-16 18:30N 55°50' E 016°41'714.0
2019-Aug-16 18:00N 55°52' E 016°53'1614.0
2019-Aug-16 16:52N 55°56' E 017°21'27113.8
2019-Aug-15 21:12N 59°30' E 022°33'314.6
2019-Aug-15 21:00N 59°32' E 022°38'714.2
2019-Aug-15 20:30N 59°34' E 022°51'714.6
2019-Aug-15 20:01N 59°36' E 023°05'714.5
2019-Aug-15 19:30N 59°38' E 023°19'714.2
2019-Aug-15 19:00N 59°40' E 023°32'714.0
2019-Aug-15 18:29N 59°42' E 023°46'1714.3
2019-Aug-15 17:19N 59°46' E 024°18'413.5
2019-Aug-15 17:00N 59°47' E 024°26'713.7
2019-Aug-15 16:30N 59°49' E 024°39'713.5
2019-Aug-15 16:00N 59°52' E 024°51'711.3
2019-Aug-15 15:24N 59°58' E 024°57'514.3
2019-Aug-15 15:00N 60°04' E 024°58'510.4
2019-Aug-15 14:30N 60°09' E 024°60'2 3.2
2019-Aug-15 13:58N 60°10' E 024°57'0 0.0
2019-Aug-15 13:28N 60°10' E 024°57'0 0.0
2019-Aug-15 12:58N 60°10' E 024°57'0 0.0
2019-Aug-15 12:30N 60°10' E 024°57'0 0.0
2019-Aug-15 12:00N 60°10' E 024°57'0 0.0
2019-Aug-15 11:29N 60°10' E 024°57'0 0.0
2019-Aug-15 11:00N 60°10' E 024°57'0 0.0
2019-Aug-15 10:30N 60°10' E 024°57'0 0.0
2019-Aug-15 09:58N 60°10' E 024°57'0 0.0
2019-Aug-15 09:29N 60°10' E 024°57'0 0.0
2019-Aug-15 08:58N 60°10' E 024°57'0 0.0
2019-Aug-15 08:28N 60°10' E 024°57'0 0.0
2019-Aug-15 07:58N 60°10' E 024°57'0 0.0
2019-Aug-15 07:30N 60°10' E 024°57'1 2.6
2019-Aug-15 07:01N 60°09' E 024°60'510.2
2019-Aug-15 06:30N 60°04' E 024°58'510.2
2019-Aug-15 06:00N 59°59' E 024°57'611.2
2019-Aug-15 05:30N 59°57' E 025°07'612.3
2019-Aug-15 05:00N 59°56' E 025°19'812.2
2019-Aug-15 04:20N 59°55' E 025°35'1912.1
2019-Aug-15 02:46N 59°59' E 026°12'312.2
2019-Aug-15 02:30N 59°60' E 026°18'612.2
2019-Aug-15 02:00N 60°01' E 026°30'612.0
2019-Aug-15 01:30N 60°01' E 026°42'612.3
2019-Aug-15 01:00N 60°00' E 026°54'611.6
2019-Aug-15 00:29N 60°01' E 027°06'612.6
2019-Aug-15 00:00N 60°04' E 027°16'612.5
2019-Aug-14 23:30N 60°07' E 027°27'612.1
2019-Aug-14 23:00N 60°10' E 027°38'611.6
2019-Aug-14 22:30N 60°12' E 027°49'612.4
2019-Aug-14 22:01N 60°11' E 028°01'612.2
2019-Aug-14 21:30N 60°09' E 028°12'611.6
2019-Aug-14 21:00N 60°06' E 028°22'612.1
2019-Aug-14 20:30N 60°03' E 028°33'612.3
2019-Aug-14 20:00N 60°03' E 028°45'712.3
2019-Aug-14 19:28N 60°02' E 028°59'912.6
2019-Aug-14 18:46N 60°02' E 029°17'1611.3
2019-Aug-14 17:21N 59°58' E 029°47'310.0
2019-Aug-14 17:00N 59°57' E 029°54'5 9.9
2019-Aug-14 16:30N 59°55' E 030°03'4 8.3
2019-Aug-14 16:00N 59°53' E 030°10'3 5.5
2019-Aug-14 15:30N 59°55' E 030°15'2 3.3
2019-Aug-14 15:00N 59°56' E 030°17'0 0.0
2019-Aug-14 14:30N 59°56' E 030°17'0 0.0
2019-Aug-14 14:01N 59°56' E 030°17'0 0.0
2019-Aug-14 13:28N 59°56' E 030°17'0 0.0
2019-Aug-14 12:58N 59°56' E 030°17'0 0.0
2019-Aug-14 12:28N 59°56' E 030°17'0 0.0
2019-Aug-14 11:58N 59°56' E 030°17'0 0.0
2019-Aug-14 11:28N 59°56' E 030°17'0 0.0
2019-Aug-14 11:00N 59°56' E 030°17'0 0.0
2019-Aug-14 10:29N 59°56' E 030°17'0 0.0
2019-Aug-14 09:58N 59°56' E 030°17'0 0.0
2019-Aug-14 09:28N 59°56' E 030°17'0 0.0
2019-Aug-14 08:58N 59°56' E 030°17'0 0.0
2019-Aug-14 08:28N 59°56' E 030°17'0 0.0
2019-Aug-14 07:55N 59°56' E 030°17'0 0.0
2019-Aug-14 07:29N 59°56' E 030°17'0 0.0
2019-Aug-14 07:00N 59°56' E 030°17'0 0.0
2019-Aug-14 06:30N 59°56' E 030°17'0 0.0
2019-Aug-14 05:59N 59°56' E 030°17'0 0.0
2019-Aug-14 05:29N 59°56' E 030°17'0 0.0
2019-Aug-14 04:59N 59°56' E 030°17'0 0.0
2019-Aug-14 04:29N 59°56' E 030°17'0 0.0
2019-Aug-14 03:59N 59°56' E 030°17'0 0.0
2019-Aug-14 03:29N 59°56' E 030°17'0 0.0
2019-Aug-14 02:56N 59°56' E 030°17'0 0.0
2019-Aug-14 02:29N 59°56' E 030°17'0 0.0
2019-Aug-14 01:59N 59°56' E 030°17'0 0.0
2019-Aug-14 01:29N 59°56' E 030°17'0 0.0
2019-Aug-14 00:59N 59°56' E 030°17'0 0.0
2019-Aug-14 00:30N 59°56' E 030°17'0 0.0
2019-Aug-14 00:00N 59°56' E 030°17'0 0.0
2019-Aug-13 23:30N 59°56' E 030°17'0 0.0
2019-Aug-13 22:59N 59°56' E 030°17'0 0.0
2019-Aug-13 22:28N 59°56' E 030°17'0 0.0
2019-Aug-13 21:58N 59°56' E 030°17'0 0.0
2019-Aug-13 21:28N 59°56' E 030°17'0 0.0
2019-Aug-13 21:00N 59°56' E 030°17'0 0.0
2019-Aug-13 20:29N 59°56' E 030°17'0 0.0
2019-Aug-13 19:59N 59°56' E 030°17'  

Dump ship's entire track history